Time;durP1;ratioP1;P1;durP2;ratioP2;P2;SDS_P1;SDS_P2;PMS_P1;PMS_P2;Temp;Humidity;BMP_temperature;BMP_pressure;BME280_temperature;BME280_humidity;BME280_pressure;Samples;Min_cycle;Max_cycle;Signal;HPM_P1;HPM_P2
2023/11/02 00:00:54;;;;;;;4.15;2.60;;;;;;;10.26;73.82;99786.56;1700984;84;21057;-67
2023/11/02 00:03:24;;;;;;;3.80;2.30;;;;;;;10.25;74.02;99785.41;1700225;83;21061;-65
2023/11/02 00:05:59;;;;;;;3.52;2.47;;;;;;;10.22;74.13;99788.05;1700638;84;21505;-65
2023/11/02 00:08:36;;;;;;;3.80;2.37;;;;;;;10.22;74.30;99785.83;1699211;84;21069;-65
2023/11/02 00:11:07;;;;;;;3.80;2.40;;;;;;;10.22;74.41;99778.98;1700739;83;21441;-66
2023/11/02 00:13:36;;;;;;;3.90;2.10;;;;;;;10.21;74.65;99786.89;1669479;85;21096;-66
2023/11/02 00:16:06;;;;;;;4.45;2.20;;;;;;;10.21;74.74;99786.36;1669372;86;21042;-75
2023/11/02 00:18:34;;;;;;;3.27;2.22;;;;;;;10.22;74.96;99783.09;1640605;87;21095;-67
2023/11/02 00:21:04;;;;;;;4.17;2.60;;;;;;;10.21;75.05;99784.15;1700847;84;21017;-66
2023/11/02 00:23:39;;;;;;;5.62;2.60;;;;;;;10.19;75.17;99782.95;1662893;86;21074;-66
2023/11/02 00:26:08;;;;;;;7.40;2.60;;;;;;;10.20;75.33;99783.30;1669188;84;21006;-65
2023/11/02 00:28:39;;;;;;;5.42;2.80;;;;;;;10.21;75.38;99785.52;1640858;87;21062;-65
2023/11/02 00:31:08;;;;;;;4.97;2.75;;;;;;;10.19;75.32;99787.06;1700690;84;21057;-65
2023/11/02 00:33:37;;;;;;;4.08;2.55;;;;;;;10.19;75.37;99787.06;1700886;84;21042;-65
2023/11/02 00:36:08;;;;;;;8.50;2.65;;;;;;;10.19;75.25;99789.80;1669230;84;21065;-67
2023/11/02 00:38:38;;;;;;;4.83;2.70;;;;;;;10.21;75.28;99789.63;1669713;86;21050;-65
2023/11/02 00:41:08;;;;;;;4.95;2.72;;;;;;;10.19;75.33;99787.06;1641097;87;21058;-65
2023/11/02 00:43:38;;;;;;;3.90;2.77;;;;;;;10.21;75.33;99788.25;1700780;84;21026;-66
2023/11/02 00:46:07;;;;;;;5.25;3.17;;;;;;;10.20;75.39;99790.15;1700765;84;21056;-66
2023/11/02 00:48:36;;;;;;;7.67;3.20;;;;;;;10.21;75.58;99790.47;1669237;86;21042;-65
2023/11/02 00:51:34;;;;;;;5.75;3.17;;;;;;;10.22;75.65;99790.78;1670956;85;21119;-65
2023/11/02 00:53:47;;;;;;;9.50;3.37;;;;;;;10.22;75.74;99785.30;1648325;85;21039;-65
2023/11/02 00:56:17;;;;;;;5.37;2.83;;;;;;;10.21;75.85;99793.20;1694242;83;21071;-65
2023/11/02 00:58:49;;;;;;;5.15;3.00;;;;;;;10.21;75.80;99786.36;1694405;84;21486;-65
2023/11/02 01:01:22;;;;;;;4.20;2.98;;;;;;;10.18;76.03;99788.12;1694298;85;21027;-66
2023/11/02 01:03:56;;;;;;;4.78;2.72;;;;;;;10.18;76.06;99785.38;1694430;83;21070;-65
2023/11/02 01:06:30;;;;;;;4.17;2.90;;;;;;;10.15;76.15;99792.12;1694228;85;21496;-66
2023/11/02 01:09:38;;;;;;;5.03;2.90;;;;;;;10.15;76.26;99785.80;1694366;84;21019;-66
2023/11/02 01:12:07;;;;;;;2.55;1.98;;;;;;;10.12;76.26;99788.95;1694284;84;21003;-66
2023/11/02 01:14:49;;;;;;;5.75;2.70;;;;;;;10.10;76.47;99797.38;1694233;84;21037;-66
2023/11/02 01:17:30;;;;;;;4.20;2.83;;;;;;;10.09;76.37;99798.95;1694490;84;21082;-65
2023/11/02 01:20:36;;;;;;;4.12;2.92;;;;;;;10.06;76.24;99799.38;1694355;85;21454;-67
2023/11/02 01:23:12;;;;;;;6.53;2.85;;;;;;;10.04;76.37;99791.38;1694417;84;21071;-65
2023/11/02 01:25:45;;;;;;;4.17;2.67;;;;;;;10.07;76.53;99796.43;1694260;83;21217;-66
2023/11/02 01:28:19;;;;;;;4.65;3.08;;;;;;;10.07;76.37;99804.64;1645186;87;21082;-65
2023/11/02 01:31:05;;;;;;;6.05;2.87;;;;;;;10.05;76.11;99795.80;1645234;87;21070;-65
2023/11/02 01:33:42;;;;;;;5.53;2.85;;;;;;;10.05;76.04;99799.06;1645266;86;21490;-65
2023/11/02 01:36:12;;;;;;;4.78;2.50;;;;;;;10.07;75.96;99802.43;1645512;87;21054;-66
2023/11/02 01:38:42;;;;;;;4.30;2.70;;;;;;;10.07;75.74;99802.43;1603367;87;21102;-65
2023/11/02 01:41:17;;;;;;;6.97;2.80;;;;;;;10.05;75.45;99803.16;1623631;87;21540;-65
2023/11/02 01:44:13;;;;;;;4.40;2.77;;;;;;;10.04;75.04;99804.22;1623756;87;21066;-65
2023/11/02 01:47:01;;;;;;;6.03;2.72;;;;;;;10.02;74.74;99799.48;1676821;85;21039;-65
2023/11/02 01:49:51;;;;;;;5.30;2.58;;;;;;;9.99;74.76;99808.11;1694284;83;21078;-65
2023/11/02 01:52:53;;;;;;;5.00;2.72;;;;;;;9.96;74.49;99802.52;1647820;84;21033;-67
2023/11/02 01:55:33;;;;;;;5.53;2.52;;;;;;;9.92;74.34;99798.52;1669218;84;21505;-66
2023/11/02 01:58:31;;;;;;;4.80;2.62;;;;;;;9.90;74.44;99806.09;1669170;86;20998;-66
2023/11/02 02:01:26;;;;;;;3.70;2.52;;;;;;;9.90;74.54;99810.20;1640668;87;21544;-65
2023/11/02 02:04:03;;;;;;;5.72;2.98;;;;;;;9.89;74.51;99818.09;1700716;84;21001;-66
2023/11/02 02:06:45;;;;;;;4.22;2.80;;;;;;;9.85;74.49;99818.19;1700733;84;21497;-66
2023/11/02 02:09:46;;;;;;;4.53;3.05;;;;;;;9.82;74.61;99817.23;1700936;84;21081;-66
2023/11/02 02:12:51;;;;;;;6.83;3.10;;;;;;;9.77;74.69;99821.95;1691456;84;21038;-65
2023/11/02 02:15:31;;;;;;;6.60;2.87;;;;;;;9.68;74.99;99823.16;1669148;85;21085;-65
2023/11/02 02:18:32;;;;;;;4.80;2.90;;;;;;;9.59;75.55;99823.03;1669430;86;21057;-67
2023/11/02 02:21:13;;;;;;;4.83;2.52;;;;;;;9.54;75.90;99818.70;1640921;86;21066;-66
2023/11/02 02:24:02;;;;;;;5.28;2.75;;;;;;;9.51;76.29;99827.31;1700738;84;21101;-66
2023/11/02 02:27:08;;;;;;;5.65;3.17;;;;;;;9.45;76.47;99828.14;1700477;84;21716;-65
2023/11/02 02:29:58;;;;;;;7.95;3.15;;;;;;;9.42;76.73;99827.17;1669420;85;21010;-66
2023/11/02 02:32:51;;;;;;;5.65;2.95;;;;;;;9.38;76.86;99830.00;1650999;86;21066;-65
2023/11/02 02:35:37;;;;;;;4.85;3.10;;;;;;;9.36;77.09;99825.26;1640390;86;21047;-65
2023/11/02 02:38:11;;;;;;;7.08;2.98;;;;;;;9.31;77.19;99833.23;1700825;83;21041;-66
2023/11/02 02:40:42;;;;;;;5.53;3.33;;;;;;;9.27;77.28;99827.33;1668588;85;21070;-66
2023/11/02 02:43:11;;;;;;;7.28;3.33;;;;;;;9.26;77.34;99824.80;1666523;85;21037;-66
2023/11/02 02:45:40;;;;;;;7.20;3.17;;;;;;;9.24;77.20;99830.98;1640667;86;21567;-66
2023/11/02 02:48:08;;;;;;;5.50;2.70;;;;;;;9.21;77.32;99835.81;1700875;83;21065;-67
2023/11/02 02:50:38;;;;;;;7.37;3.05;;;;;;;9.20;77.31;99835.49;1669606;86;21074;-65
2023/11/02 02:53:08;;;;;;;5.17;2.98;;;;;;;9.16;77.28;99838.31;1672353;85;21084;-66
2023/11/02 02:55:39;;;;;;;4.95;2.75;;;;;;;9.13;77.21;99843.34;1672190;85;21548;-66
2023/11/02 02:58:09;;;;;;;5.65;2.92;;;;;;;9.08;77.13;99844.44;1672210;86;21491;-66
2023/11/02 03:00:39;;;;;;;5.05;2.80;;;;;;;9.05;77.19;99842.11;1672558;85;21043;-64
2023/11/02 03:03:08;;;;;;;5.75;2.77;;;;;;;9.01;77.26;99849.02;1672095;85;21059;-65
2023/11/02 03:05:38;;;;;;;5.90;3.08;;;;;;;8.99;77.37;99850.59;1672287;85;21082;-65
2023/11/02 03:08:08;;;;;;;5.58;3.10;;;;;;;8.99;77.45;99845.64;1671945;86;21059;-67
2023/11/02 03:10:39;;;;;;;4.28;3.17;;;;;;;8.99;77.43;99858.78;1672275;85;21440;-66
2023/11/02 03:13:07;;;;;;;5.45;2.98;;;;;;;8.96;77.55;99864.65;1672413;85;21111;-65
2023/11/02 03:15:36;;;;;;;7.05;2.80;;;;;;;8.93;77.56;99873.25;1672296;85;21048;-65
2023/11/02 03:18:12;;;;;;;6.50;2.92;;;;;;;8.89;77.57;99871.44;1672579;86;21097;-65
2023/11/02 03:20:41;;;;;;;4.75;2.70;;;;;;;8.85;77.59;99867.94;1649710;86;21559;-65
2023/11/02 03:23:36;;;;;;;4.47;2.42;;;;;;;8.77;77.53;99870.83;1672210;86;21502;-65
2023/11/02 03:26:24;;;;;;;3.83;2.90;;;;;;;8.74;77.63;99872.59;1672223;86;21502;-67
2023/11/02 03:29:19;;;;;;;3.67;1.82;;;;;;;8.76;77.57;99874.08;1672451;86;21060;-66
2023/11/02 03:32:06;;;;;;;3.87;2.58;;;;;;;8.76;77.35;99870.50;1672718;85;21064;-66
2023/11/02 03:34:52;;;;;;;4.00;2.40;;;;;;;8.72;77.14;99863.23;1672362;86;21043;-65
2023/11/02 03:37:42;;;;;;;3.70;2.65;;;;;;;8.72;76.81;99867.84;1672457;86;21087;-65
2023/11/02 03:40:31;;;;;;;2.77;2.10;;;;;;;8.70;76.68;99868.05;1672389;85;21189;-65
2023/11/02 03:43:20;;;;;;;4.33;2.47;;;;;;;8.65;76.34;99872.41;1672693;85;21484;-65
2023/11/02 03:46:13;;;;;;;3.37;2.27;;;;;;;8.61;76.22;99878.80;1672485;85;21012;-65
2023/11/02 03:48:48;;;;;;;4.35;2.60;;;;;;;8.56;76.14;99867.62;1672497;86;21055;-66
2023/11/02 03:51:57;;;;;;;4.75;2.40;;;;;;;8.53;76.08;99874.32;1670525;86;22000;-65
2023/11/02 03:54:54;;;;;;;4.10;2.62;;;;;;;8.50;76.10;99877.97;1666638;86;21074;-65
2023/11/02 03:57:32;;;;;;;5.00;2.87;;;;;;;8.45;75.92;99878.56;1638285;87;21063;-65
2023/11/02 04:00:11;;;;;;;3.60;2.62;;;;;;;8.41;75.85;99885.42;1666665;85;21042;-66
2023/11/02 04:02:46;;;;;;;6.22;3.35;;;;;;;8.37;75.76;99880.55;1638335;87;21067;-66
2023/11/02 04:05:24;;;;;;;6.33;3.40;;;;;;;8.32;75.77;99881.11;1666382;84;21188;-65
2023/11/02 04:08:10;;;;;;;6.60;3.67;;;;;;;8.26;75.77;99885.98;1667051;85;20986;-64
2023/11/02 04:10:57;;;;;;;4.97;2.80;;;;;;;8.18;75.96;99884.23;1638153;87;21491;-65
2023/11/02 04:13:32;;;;;;;5.30;3.17;;;;;;;8.16;76.16;99887.67;1666724;85;21018;-64
2023/11/02 04:16:02;;;;;;;4.95;2.98;;;;;;;8.14;76.24;99892.48;1638304;87;21099;-66
2023/11/02 04:18:31;;;;;;;5.92;3.15;;;;;;;8.15;76.18;99898.78;1666746;84;21130;-66
2023/11/02 04:21:04;;;;;;;4.53;3.02;;;;;;;8.12;76.08;99899.17;1638399;86;21004;-65
2023/11/02 04:23:34;;;;;;;4.33;2.67;;;;;;;8.09;76.27;99894.10;1666747;86;21058;-65
2023/11/02 04:26:03;;;;;;;4.28;2.47;;;;;;;8.06;76.26;99889.03;1638337;86;21578;-66
2023/11/02 04:28:33;;;;;;;4.08;2.20;;;;;;;8.06;76.15;99892.61;1666802;85;21096;-66
2023/11/02 04:31:02;;;;;;;6.25;2.40;;;;;;;8.04;76.08;99888.38;1638161;87;21058;-66
2023/11/02 04:33:31;;;;;;;2.77;2.30;;;;;;;8.03;75.94;99884.81;1666921;86;21086;-65
2023/11/02 04:36:00;;;;;;;3.47;2.25;;;;;;;8.01;76.00;99884.16;1638133;87;21098;-66
2023/11/02 04:38:29;;;;;;;3.33;2.30;;;;;;;7.97;75.95;99886.95;1666830;86;21014;-65
2023/11/02 04:40:58;;;;;;;2.85;2.30;;;;;;;7.93;75.97;99882.92;1638183;87;21478;-66
2023/11/02 04:43:28;;;;;;;4.03;2.40;;;;;;;7.89;75.87;99887.91;1666555;86;21041;-66
2023/11/02 04:45:57;;;;;;;3.52;2.37;;;;;;;7.85;75.89;99889.86;1638331;86;21091;-65
2023/11/02 04:48:25;;;;;;;5.37;2.77;;;;;;;7.83;75.86;99890.56;1666489;86;21093;-65
2023/11/02 04:50:56;;;;;;;9.15;2.40;;;;;;;7.79;75.86;99890.08;1638032;86;21519;-67
2023/11/02 04:53:26;;;;;;;3.52;2.42;;;;;;;7.73;75.80;99892.73;1666752;85;21062;-65
2023/11/02 04:55:55;;;;;;;5.85;2.60;;;;;;;7.69;75.90;99902.33;1638267;87;21482;-68
2023/11/02 04:58:25;;;;;;;6.17;3.20;;;;;;;7.69;76.19;99896.36;1666615;85;21563;-66
2023/11/02 05:00:54;;;;;;;3.25;2.45;;;;;;;7.72;76.31;99900.06;1638164;87;21071;-65
2023/11/02 05:03:23;;;;;;;4.80;2.50;;;;;;;7.74;76.37;99899.88;1666554;85;21114;-66
2023/11/02 05:05:53;;;;;;;7.20;4.40;;;;;;;7.74;76.16;99898.51;1638314;86;21103;-66
2023/11/02 05:08:22;;;;;;;6.42;3.30;;;;;;;7.72;76.12;99902.79;1666830;86;21097;-65
2023/11/02 05:10:51;;;;;;;5.08;3.00;;;;;;;7.69;76.02;99903.17;1638291;87;21074;-65
2023/11/02 05:13:20;;;;;;;5.55;2.90;;;;;;;7.67;76.06;99910.70;1666791;86;21054;-65
2023/11/02 05:15:49;;;;;;;3.95;2.87;;;;;;;7.65;76.15;99915.50;1638289;86;21054;-67
2023/11/02 05:18:22;;;;;;;7.15;3.20;;;;;;;7.66;76.26;99915.83;1666357;86;21082;-66
2023/11/02 05:20:57;;;;;;;4.33;2.70;;;;;;;7.67;76.12;99920.76;1638296;86;21094;-66
2023/11/02 05:23:22;;;;;;;3.58;2.65;;;;;;;7.66;76.12;99921.28;1666375;84;21070;-65
2023/11/02 05:25:50;;;;;;;6.25;2.90;;;;;;;7.66;76.08;99909.01;1638302;87;21084;-66
2023/11/02 05:28:20;;;;;;;9.20;3.98;;;;;;;7.69;76.03;99909.99;1666494;85;21087;-66
2023/11/02 05:30:49;;;;;;;8.18;4.35;;;;;;;7.70;76.06;99907.59;1638282;87;21115;-66
2023/11/02 05:33:18;;;;;;;14.10;6.00;;;;;;;7.66;76.21;99920.44;1666494;85;21077;-67
2023/11/02 05:35:47;;;;;;;12.50;5.22;;;;;;;7.62;76.64;99937.69;1620279;87;21083;-67
2023/11/02 05:38:16;;;;;;;6.75;3.52;;;;;;;7.57;76.87;99940.14;1666671;85;21109;-66
2023/11/02 05:40:46;;;;;;;9.70;4.92;;;;;;;7.50;77.27;99943.30;1638077;87;21054;-66
2023/11/02 05:43:14;;;;;;;11.00;5.87;;;;;;;7.51;77.47;99949.08;1666755;84;21465;-66
2023/11/02 05:45:44;;;;;;;12.60;5.35;;;;;;;7.51;77.50;99964.91;1638164;87;21058;-65
2023/11/02 05:48:13;;;;;;;11.88;5.55;;;;;;;7.51;77.60;99962.19;1666660;86;21483;-65
2023/11/02 05:50:42;;;;;;;6.83;3.35;;;;;;;7.47;77.63;99962.75;1638236;87;21134;-66
2023/11/02 05:53:11;;;;;;;6.25;3.30;;;;;;;7.46;77.69;99969.24;1666362;85;21069;-67
2023/11/02 05:55:40;;;;;;;6.70;3.62;;;;;;;7.51;77.56;99973.61;1638027;87;21091;-66
2023/11/02 05:58:09;;;;;;;7.22;4.17;;;;;;;7.59;77.39;99976.23;1666535;85;21151;-66
2023/11/02 06:00:38;;;;;;;13.70;6.30;;;;;;;7.65;77.13;99978.20;1638057;87;21544;-67
2023/11/02 06:03:07;;;;;;;10.38;5.15;;;;;;;7.71;76.90;99980.18;1666269;86;21074;-66
2023/11/02 06:05:37;;;;;;;7.15;3.67;;;;;;;7.77;76.55;99981.30;1637948;87;21054;-67
2023/11/02 06:08:07;;;;;;;6.15;3.42;;;;;;;7.83;76.16;99975.96;1666294;85;21069;-68
2023/11/02 06:10:36;;;;;;;7.62;4.12;;;;;;;7.88;75.71;99978.12;1637874;87;21158;-67
2023/11/02 06:13:06;;;;;;;13.08;7.10;;;;;;;7.93;75.57;99981.97;1666712;85;21074;-66
2023/11/02 06:15:36;;;;;;;8.43;3.62;;;;;;;7.98;75.31;99980.55;1638218;86;21514;-65
2023/11/02 06:18:06;;;;;;;6.17;3.30;;;;;;;7.98;74.71;99984.64;1666373;84;21095;-68
2023/11/02 06:20:36;;;;;;;6.90;3.40;;;;;;;7.98;74.56;99980.03;1638163;87;21174;-67
2023/11/02 06:23:06;;;;;;;5.53;3.80;;;;;;;8.00;74.33;99986.66;1666310;85;21054;-66
2023/11/02 06:25:36;;;;;;;6.90;3.62;;;;;;;8.02;74.02;99984.58;1638334;87;21459;-66
2023/11/02 06:28:05;;;;;;;5.33;3.45;;;;;;;8.04;73.99;99992.05;1666428;86;21030;-68
2023/11/02 06:30:34;;;;;;;10.70;4.00;;;;;;;8.04;73.72;99986.60;1637962;86;21170;-65
2023/11/02 06:33:05;;;;;;;8.90;3.52;;;;;;;8.05;73.69;99990.50;1666709;84;21030;-65
2023/11/02 06:35:35;;;;;;;9.30;3.65;;;;;;;8.08;73.65;99989.27;1638047;87;21527;-67
2023/11/02 06:38:04;;;;;;;6.22;3.30;;;;;;;8.13;73.68;99987.66;1666406;84;21723;-66
2023/11/02 06:40:34;;;;;;;5.60;3.37;;;;;;;8.18;73.67;99992.54;1638192;86;21086;-66
2023/11/02 06:43:05;;;;;;;8.35;4.10;;;;;;;8.21;73.63;99988.91;1666567;85;21030;-67
2023/11/02 06:45:33;;;;;;;8.85;3.62;;;;;;;8.24;73.48;99993.98;1638152;86;21063;-65
2023/11/02 06:48:03;;;;;;;8.33;4.70;;;;;;;8.28;73.02;99993.08;1666478;85;21518;-66
2023/11/02 06:50:32;;;;;;;8.98;4.33;;;;;;;8.31;73.02;99983.13;1638224;86;21106;-65
2023/11/02 06:53:01;;;;;;;6.72;3.85;;;;;;;8.37;72.97;99987.85;1670099;85;21091;-67
2023/11/02 06:55:30;;;;;;;5.72;3.45;;;;;;;8.40;72.67;99984.73;1630163;88;21011;-65
2023/11/02 06:58:00;;;;;;;6.87;3.92;;;;;;;8.43;72.23;99988.44;1630099;86;21474;-67
2023/11/02 07:00:30;;;;;;;8.25;3.58;;;;;;;8.46;72.07;99984.51;1650152;87;21502;-66
2023/11/02 07:02:59;;;;;;;6.67;3.65;;;;;;;8.50;71.91;99983.08;1672312;86;21088;-65
2023/11/02 07:05:28;;;;;;;5.20;3.40;;;;;;;8.52;71.89;99981.84;1672377;86;21110;-65
2023/11/02 07:07:57;;;;;;;7.28;3.70;;;;;;;8.59;71.86;99994.20;1672377;85;21485;-66
2023/11/02 07:10:26;;;;;;;5.47;3.50;;;;;;;8.66;71.74;99991.53;1672214;86;21116;-66
2023/11/02 07:12:55;;;;;;;5.72;4.00;;;;;;;8.72;71.57;99993.48;1672381;86;21530;-66
2023/11/02 07:15:24;;;;;;;5.10;3.65;;;;;;;8.74;71.45;99986.78;1672413;85;21474;-66
2023/11/02 07:17:53;;;;;;;5.87;2.90;;;;;;;8.80;71.11;99990.62;1672426;86;21052;-67
2023/11/02 07:20:23;;;;;;;4.03;2.83;;;;;;;8.85;70.87;99990.88;1672281;86;21019;-67
2023/11/02 07:22:52;;;;;;;5.55;3.12;;;;;;;8.89;70.73;99986.18;1672224;85;21111;-67
2023/11/02 07:25:22;;;;;;;6.65;3.20;;;;;;;8.94;70.50;99989.69;1672308;85;21510;-66
2023/11/02 07:27:52;;;;;;;5.30;3.17;;;;;;;9.05;70.45;99989.67;1672459;86;21497;-66
2023/11/02 07:30:22;;;;;;;6.12;3.10;;;;;;;9.36;70.44;99993.41;1672254;86;21084;-66
2023/11/02 07:32:53;;;;;;;4.83;3.25;;;;;;;9.79;70.03;99996.33;1672687;85;21056;-65
2023/11/02 07:35:26;;;;;;;5.45;3.22;;;;;;;10.34;69.27;99987.63;1672377;86;21044;-66
2023/11/02 07:37:53;;;;;;;4.17;2.60;;;;;;;10.92;68.11;99993.44;1672503;86;21402;-67
2023/11/02 07:40:22;;;;;;;3.70;2.67;;;;;;;11.47;66.57;99980.89;1672382;86;21055;-66
2023/11/02 07:42:52;;;;;;;4.03;3.05;;;;;;;11.97;64.92;99987.56;1672409;85;21182;-67
2023/11/02 07:45:21;;;;;;;4.55;2.90;;;;;;;12.41;62.90;99987.29;1672440;85;21016;-66
2023/11/02 07:47:52;;;;;;;5.25;2.70;;;;;;;12.78;61.92;99986.41;1672159;85;21060;-66
2023/11/02 07:50:21;;;;;;;6.35;3.60;;;;;;;13.15;60.35;99987.96;1672401;86;21226;-66
2023/11/02 07:52:51;;;;;;;5.60;3.30;;;;;;;13.38;59.12;99989.58;1672045;85;21083;-67
2023/11/02 07:55:20;;;;;;;6.28;3.45;;;;;;;13.61;58.79;99984.80;1672490;85;21060;-67
2023/11/02 07:57:50;;;;;;;8.45;4.08;;;;;;;13.88;58.22;99992.27;1672228;85;21507;-66
2023/11/02 08:00:21;;;;;;;4.70;3.20;;;;;;;14.14;57.67;99991.95;1671762;85;21031;-67
2023/11/02 08:02:50;;;;;;;4.83;3.58;;;;;;;14.32;56.94;99998.00;1672472;86;21077;-66
2023/11/02 08:05:20;;;;;;;5.05;3.45;;;;;;;14.40;55.88;99992.17;1672147;85;21076;-67
2023/11/02 08:07:52;;;;;;;5.50;3.80;;;;;;;14.37;55.63;99994.55;1650568;86;21495;-66
2023/11/02 08:10:23;;;;;;;6.08;3.62;;;;;;;14.28;55.60;99987.95;1672158;86;21024;-67
2023/11/02 08:12:54;;;;;;;9.08;4.87;;;;;;;14.20;55.66;99986.05;1672231;86;21087;-66
2023/11/02 08:15:24;;;;;;;10.00;4.25;;;;;;;14.16;55.98;99988.42;1672360;85;21175;-67
2023/11/02 08:17:53;;;;;;;6.10;4.05;;;;;;;14.06;55.86;99986.75;1672428;86;21060;-66
2023/11/02 08:20:23;;;;;;;9.80;4.95;;;;;;;14.01;56.29;99992.11;1671989;86;21115;-67
2023/11/02 08:22:52;;;;;;;10.50;4.97;;;;;;;13.99;56.27;99992.87;1672173;86;21083;-65
2023/11/02 08:25:20;;;;;;;10.43;5.50;;;;;;;13.93;56.15;99997.39;1672388;86;21068;-68
2023/11/02 08:27:57;;;;;;;10.93;4.50;;;;;;;13.84;56.17;100002.06;1672246;85;21075;-66
2023/11/02 08:30:26;;;;;;;9.03;4.67;;;;;;;13.72;56.25;100004.73;1650357;86;21448;-66
2023/11/02 08:32:55;;;;;;;8.18;4.53;;;;;;;13.53;56.66;100008.49;1672166;85;21099;-67
2023/11/02 08:35:24;;;;;;;9.60;4.83;;;;;;;13.37;56.76;100007.16;1672366;85;21044;-67
2023/11/02 08:37:54;;;;;;;8.05;4.80;;;;;;;13.20;57.24;100001.91;1672208;85;21459;-65
2023/11/02 08:40:23;;;;;;;13.08;5.22;;;;;;;12.99;57.86;100005.30;1672292;85;21215;-66
2023/11/02 08:42:55;;;;;;;8.85;4.70;;;;;;;12.90;58.54;100001.66;1672446;85;21036;-67
2023/11/02 08:45:24;;;;;;;9.43;4.60;;;;;;;12.83;58.88;100003.09;1672509;86;21051;-67
2023/11/02 08:47:53;;;;;;;8.45;4.00;;;;;;;12.80;59.35;99999.94;1672280;86;21059;-66
2023/11/02 08:50:23;;;;;;;6.47;3.95;;;;;;;12.79;59.45;100001.84;1672016;85;21099;-65
2023/11/02 08:52:51;;;;;;;6.87;3.80;;;;;;;12.80;59.72;99995.28;1665195;84;21319;-69
2023/11/02 08:55:21;;;;;;;11.97;5.62;;;;;;;12.77;59.76;100002.60;1646613;85;21084;-68
2023/11/02 08:57:50;;;;;;;6.47;3.87;;;;;;;12.75;59.92;100005.27;1676276;85;21079;-66
2023/11/02 09:00:20;;;;;;;6.80;3.90;;;;;;;12.72;60.01;100007.92;1709626;83;21472;-67
2023/11/02 09:02:49;;;;;;;5.95;3.58;;;;;;;12.70;60.27;100000.43;1711767;83;21063;-68
2023/11/02 09:05:19;;;;;;;7.47;4.40;;;;;;;12.68;60.46;99997.06;1714219;84;21121;-69
2023/11/02 09:07:48;;;;;;;5.67;3.50;;;;;;;12.67;60.65;99993.47;1714516;83;21447;-68
2023/11/02 09:10:18;;;;;;;9.00;4.03;;;;;;;12.64;60.84;99980.70;1714468;83;20999;-69
2023/11/02 09:12:47;;;;;;;7.42;3.65;;;;;;;12.62;61.05;99986.95;1716046;83;21067;-66
2023/11/02 09:15:17;;;;;;;7.65;3.95;;;;;;;12.62;61.22;99984.20;1715926;83;21183;-69
2023/11/02 09:17:46;;;;;;;9.60;4.78;;;;;;;12.63;61.65;99994.13;1716223;83;21047;-67
2023/11/02 09:20:16;;;;;;;8.55;3.83;;;;;;;12.60;62.06;99987.17;1715850;83;21112;-65
2023/11/02 09:22:45;;;;;;;5.25;3.85;;;;;;;12.60;63.09;99980.83;1715847;83;21133;-67
2023/11/02 09:25:14;;;;;;;7.35;4.08;;;;;;;12.63;64.15;99983.14;1715979;83;21051;-68
2023/11/02 09:27:43;;;;;;;11.25;4.40;;;;;;;12.64;63.66;99973.30;1715617;83;21011;-69
2023/11/02 09:30:14;;;;;;;9.65;5.15;;;;;;;12.66;63.68;99971.17;1714466;83;21055;-68
2023/11/02 09:32:46;;;;;;;7.70;4.08;;;;;;;12.73;63.96;99970.28;1714468;83;21141;-68
2023/11/02 09:35:16;;;;;;;7.72;4.22;;;;;;;12.79;63.96;99972.14;1714436;83;21143;-66
2023/11/02 09:37:46;;;;;;;7.80;4.15;;;;;;;12.79;63.77;99964.73;1714562;83;21024;-71
2023/11/02 09:40:16;;;;;;;8.95;3.92;;;;;;;12.78;63.84;99956.17;1714849;83;21475;-69
2023/11/02 09:42:45;;;;;;;7.03;4.42;;;;;;;12.73;63.99;99960.12;1716118;83;21047;-67
2023/11/02 09:45:14;;;;;;;7.05;3.95;;;;;;;12.72;64.13;99957.59;1716066;83;21194;-66
2023/11/02 09:47:48;;;;;;;8.78;4.53;;;;;;;12.70;64.35;99950.95;1716092;83;21106;-68
2023/11/02 09:50:17;;;;;;;10.00;4.50;;;;;;;12.73;65.05;99953.25;1697407;83;21529;-67
2023/11/02 09:52:49;;;;;;;5.78;3.85;;;;;;;12.73;65.02;99954.63;1716003;83;21015;-69
2023/11/02 09:55:20;;;;;;;9.18;4.60;;;;;;;12.73;65.30;99939.51;1717679;83;21067;-68
2023/11/02 09:57:52;;;;;;;9.83;4.92;;;;;;;12.75;65.91;99952.50;1717598;83;21083;-69
2023/11/02 10:00:21;;;;;;;7.55;3.85;;;;;;;12.75;65.65;99941.50;1717539;83;21071;-75
2023/11/02 10:02:52;;;;;;;9.10;4.58;;;;;;;12.76;65.50;99947.30;1711934;82;21039;-68
2023/11/02 10:05:22;;;;;;;10.60;5.05;;;;;;;12.73;65.65;99942.25;1740342;81;21066;-71
2023/11/02 10:07:52;;;;;;;8.05;4.67;;;;;;;12.71;65.66;99954.01;1723798;82;21082;-68
2023/11/02 10:10:22;;;;;;;8.18;4.67;;;;;;;12.69;65.91;99958.35;1740498;82;21071;-72
2023/11/02 10:12:55;;;;;;;7.50;4.40;;;;;;;12.68;65.94;99956.67;1740457;82;21051;-68
2023/11/02 10:15:24;;;;;;;6.83;4.45;;;;;;;12.69;66.09;99950.11;1740648;82;21047;-68
2023/11/02 10:17:53;;;;;;;7.33;4.05;;;;;;;12.71;66.14;99940.27;1740446;82;21031;-68
2023/11/02 10:20:25;;;;;;;6.08;4.45;;;;;;;12.72;66.18;99939.20;1740655;82;21123;-69
2023/11/02 10:23:03;;;;;;;7.62;4.30;;;;;;;12.74;66.22;99945.31;1740416;82;21031;-69
2023/11/02 10:25:33;;;;;;;7.87;4.78;;;;;;;12.72;66.33;99930.95;1740570;82;21063;-68
2023/11/02 10:28:03;;;;;;;6.70;4.47;;;;;;;12.75;66.56;99934.63;1740456;81;21035;-68
2023/11/02 10:30:33;;;;;;;8.33;4.40;;;;;;;12.77;66.75;99928.91;1740822;81;21088;-69
2023/11/02 10:33:09;;;;;;;8.90;5.40;;;;;;;12.79;66.74;99926.24;1740382;82;21519;-69
2023/11/02 10:35:39;;;;;;;7.20;4.65;;;;;;;12.83;66.73;99928.86;1740629;82;21440;-70
2023/11/02 10:38:11;;;;;;;7.72;4.37;;;;;;;12.86;66.69;99933.91;1740552;82;21018;-70
2023/11/02 10:40:45;;;;;;;9.00;4.12;;;;;;;12.91;66.60;99934.61;1740480;82;21102;-71
2023/11/02 10:43:18;;;;;;;8.03;4.83;;;;;;;12.93;66.35;99933.84;1740522;82;21055;-67
2023/11/02 10:45:55;;;;;;;7.47;4.17;;;;;;;12.95;66.53;99936.69;1740554;81;21043;-69
2023/11/02 10:48:24;;;;;;;6.47;3.40;;;;;;;12.99;66.29;99935.16;1740609;81;21470;-71
2023/11/02 10:50:56;;;;;;;6.70;3.60;;;;;;;13.05;65.91;99928.48;1740710;82;20988;-69
2023/11/02 10:54:09;;;;;;;5.30;3.87;;;;;;;13.10;65.80;99923.99;1741008;82;21149;-70
2023/11/02 10:56:42;;;;;;;7.60;3.52;;;;;;;13.13;65.40;99933.17;1743145;81;21517;-70
2023/11/02 10:59:11;;;;;;;4.60;3.47;;;;;;;13.20;65.46;99924.89;1743165;81;21170;-69
2023/11/02 11:01:40;;;;;;;6.75;3.33;;;;;;;13.29;65.34;99927.66;1741434;81;21063;-70
2023/11/02 11:04:10;;;;;;;5.78;3.30;;;;;;;13.34;65.49;99916.80;1723515;83;21498;-71
2023/11/02 11:06:42;;;;;;;5.55;3.45;;;;;;;13.43;65.16;99918.72;1723514;83;21043;-72
2023/11/02 11:09:12;;;;;;;6.40;3.50;;;;;;;13.48;65.09;99920.25;1723814;83;21019;-69
2023/11/02 11:11:42;;;;;;;5.45;3.35;;;;;;;13.53;64.80;99917.13;1723718;83;21106;-67
2023/11/02 11:14:11;;;;;;;5.92;3.37;;;;;;;13.56;64.55;99919.42;1723511;83;21050;-70
2023/11/02 11:16:40;;;;;;;9.00;3.37;;;;;;;13.56;64.59;99912.53;1723440;83;21054;-71
2023/11/02 11:19:11;;;;;;;8.30;3.33;;;;;;;13.58;64.32;99911.77;1723395;83;21600;-70
2023/11/02 11:21:44;;;;;;;8.43;3.45;;;;;;;13.59;64.33;99913.99;1723462;83;21098;-70
2023/11/02 11:24:17;;;;;;;6.30;3.98;;;;;;;13.57;64.09;99915.59;1723658;83;21107;-68
2023/11/02 11:26:48;;;;;;;7.67;3.42;;;;;;;13.55;64.28;99914.98;1723461;83;21076;-69
2023/11/02 11:29:42;;;;;;;7.42;3.40;;;;;;;13.53;64.27;99908.87;1723660;83;21019;-69
2023/11/02 11:32:35;;;;;;;4.40;2.83;;;;;;;13.50;64.59;99899.69;1723557;83;21079;-67
2023/11/02 11:35:12;;;;;;;4.35;3.05;;;;;;;13.49;64.34;99902.14;1723477;83;21090;-70
2023/11/02 11:37:50;;;;;;;5.20;3.33;;;;;;;13.48;64.44;99902.37;1723691;83;21101;-69
2023/11/02 11:40:29;;;;;;;7.00;3.67;;;;;;;13.50;64.51;99906.58;1723685;83;21079;-68
2023/11/02 11:45:53;;;;;;;7.85;3.98;;;;;;;13.56;65.35;99907.03;1723751;83;21094;-69
2023/11/02 11:48:41;;;;;;;8.65;3.75;;;;;;;13.60;64.65;99897.78;1723508;83;21071;-74
2023/11/02 11:51:39;;;;;;;6.95;3.65;;;;;;;13.59;64.23;99894.19;1723720;83;21063;-70
2023/11/02 11:54:14;;;;;;;6.70;3.65;;;;;;;13.59;64.03;99898.31;1690636;84;21103;-72
2023/11/02 11:56:45;;;;;;;6.97;3.45;;;;;;;13.57;63.75;99891.36;1672626;85;21107;-68
2023/11/02 11:59:13;;;;;;;6.30;3.17;;;;;;;13.56;63.63;99897.40;1647109;86;21499;-68
2023/11/02 12:01:43;;;;;;;6.08;3.47;;;;;;;13.56;63.58;99893.80;1676341;85;21112;-70
2023/11/02 12:04:49;;;;;;;5.40;3.05;;;;;;;13.56;63.67;99900.15;1679623;85;21616;-69
2023/11/02 12:07:22;;;;;;;6.92;3.50;;;;;;;13.59;63.50;99895.56;1658168;85;21139;-68
2023/11/02 12:09:51;;;;;;;5.22;3.15;;;;;;;13.64;63.16;99897.09;1679897;85;21107;-69